sensor_id;sensor_type;location;lat;lon;timestamp;P1;durP1;ratioP1;P2;durP2;ratioP2
16320;SDS011;8269;50.990;4.494;2022-08-04T00:03:38;11.55;;;5.20;;
16320;SDS011;8269;50.990;4.494;2022-08-04T00:08:49;9.60;;;5.25;;
16320;SDS011;8269;50.990;4.494;2022-08-04T00:11:23;12.20;;;4.95;;
16320;SDS011;8269;50.990;4.494;2022-08-04T00:14:00;10.68;;;5.15;;
16320;SDS011;8269;50.990;4.494;2022-08-04T00:16:36;10.38;;;4.60;;
16320;SDS011;8269;50.990;4.494;2022-08-04T00:19:11;9.68;;;4.43;;
16320;SDS011;8269;50.990;4.494;2022-08-04T00:21:45;10.43;;;4.32;;
16320;SDS011;8269;50.990;4.494;2022-08-04T00:24:15;8.02;;;3.85;;
16320;SDS011;8269;50.990;4.494;2022-08-04T00:26:42;10.75;;;4.40;;
16320;SDS011;8269;50.990;4.494;2022-08-04T00:29:08;13.20;;;4.93;;
16320;SDS011;8269;50.990;4.494;2022-08-04T00:31:34;10.93;;;4.38;;
16320;SDS011;8269;50.990;4.494;2022-08-04T00:34:00;12.27;;;4.43;;
16320;SDS011;8269;50.990;4.494;2022-08-04T00:36:28;9.88;;;4.45;;
16320;SDS011;8269;50.990;4.494;2022-08-04T00:38:55;11.40;;;4.60;;
16320;SDS011;8269;50.990;4.494;2022-08-04T01:00:19;7.82;;;4.68;;
16320;SDS011;8269;50.990;4.494;2022-08-04T01:03:06;7.22;;;3.92;;
16320;SDS011;8269;50.990;4.494;2022-08-04T01:05:56;10.63;;;4.63;;
16320;SDS011;8269;50.990;4.494;2022-08-04T01:08:39;8.88;;;4.63;;
16320;SDS011;8269;50.990;4.494;2022-08-04T01:16:57;7.15;;;4.35;;
16320;SDS011;8269;50.990;4.494;2022-08-04T01:19:53;10.00;;;4.63;;
16320;SDS011;8269;50.990;4.494;2022-08-04T01:30:37;10.75;;;4.75;;
16320;SDS011;8269;50.990;4.494;2022-08-04T01:33:11;10.85;;;4.85;;
16320;SDS011;8269;50.990;4.494;2022-08-04T01:38:28;11.27;;;4.82;;
16320;SDS011;8269;50.990;4.494;2022-08-04T01:41:07;12.30;;;5.13;;
16320;SDS011;8269;50.990;4.494;2022-08-04T01:43:40;9.88;;;5.03;;
16320;SDS011;8269;50.990;4.494;2022-08-04T01:46:09;10.05;;;5.13;;
16320;SDS011;8269;50.990;4.494;2022-08-04T01:48:39;9.95;;;5.15;;
16320;SDS011;8269;50.990;4.494;2022-08-04T01:51:08;9.05;;;5.45;;
16320;SDS011;8269;50.990;4.494;2022-08-04T01:53:35;12.93;;;5.55;;
16320;SDS011;8269;50.990;4.494;2022-08-04T01:56:06;11.13;;;5.00;;
16320;SDS011;8269;50.990;4.494;2022-08-04T01:58:35;10.88;;;6.25;;
16320;SDS011;8269;50.990;4.494;2022-08-04T02:01:05;10.70;;;5.43;;
16320;SDS011;8269;50.990;4.494;2022-08-04T02:03:34;13.35;;;5.90;;
16320;SDS011;8269;50.990;4.494;2022-08-04T02:06:30;11.98;;;5.50;;
16320;SDS011;8269;50.990;4.494;2022-08-04T02:11:46;10.20;;;5.88;;
16320;SDS011;8269;50.990;4.494;2022-08-04T02:14:24;10.80;;;5.78;;
16320;SDS011;8269;50.990;4.494;2022-08-04T02:17:10;10.65;;;5.55;;
16320;SDS011;8269;50.990;4.494;2022-08-04T02:22:41;12.45;;;7.15;;
16320;SDS011;8269;50.990;4.494;2022-08-04T02:25:13;14.43;;;6.80;;
16320;SDS011;8269;50.990;4.494;2022-08-04T02:30:34;12.40;;;6.82;;
16320;SDS011;8269;50.990;4.494;2022-08-04T02:33:09;11.60;;;6.60;;
16320;SDS011;8269;50.990;4.494;2022-08-04T02:35:39;10.40;;;6.45;;
16320;SDS011;8269;50.990;4.494;2022-08-04T02:38:14;12.45;;;6.03;;
16320;SDS011;8269;50.990;4.494;2022-08-04T02:40:59;11.25;;;6.80;;
16320;SDS011;8269;50.990;4.494;2022-08-04T02:43:26;11.05;;;6.30;;
16320;SDS011;8269;50.990;4.494;2022-08-04T02:45:54;12.15;;;6.43;;
16320;SDS011;8269;50.990;4.494;2022-08-04T02:48:23;15.00;;;6.80;;
16320;SDS011;8269;50.990;4.494;2022-08-04T02:50:50;12.80;;;6.50;;
16320;SDS011;8269;50.990;4.494;2022-08-04T02:53:19;13.35;;;6.45;;
16320;SDS011;8269;50.990;4.494;2022-08-04T02:55:47;13.57;;;6.22;;
16320;SDS011;8269;50.990;4.494;2022-08-04T02:58:14;10.07;;;6.38;;
16320;SDS011;8269;50.990;4.494;2022-08-04T03:00:44;13.88;;;6.90;;
16320;SDS011;8269;50.990;4.494;2022-08-04T03:03:15;10.85;;;6.88;;
16320;SDS011;8269;50.990;4.494;2022-08-04T03:25:40;14.32;;;7.55;;
16320;SDS011;8269;50.990;4.494;2022-08-04T03:34:02;12.23;;;7.47;;
16320;SDS011;8269;50.990;4.494;2022-08-04T03:43:00;11.27;;;7.15;;
16320;SDS011;8269;50.990;4.494;2022-08-04T03:54:23;11.98;;;6.55;;
16320;SDS011;8269;50.990;4.494;2022-08-04T03:57:19;11.43;;;7.07;;
16320;SDS011;8269;50.990;4.494;2022-08-04T04:11:29;12.45;;;6.75;;
16320;SDS011;8269;50.990;4.494;2022-08-04T04:14:09;14.38;;;7.03;;
16320;SDS011;8269;50.990;4.494;2022-08-04T04:19:22;14.95;;;7.03;;
16320;SDS011;8269;50.990;4.494;2022-08-04T04:30:46;18.25;;;7.45;;
16320;SDS011;8269;50.990;4.494;2022-08-04T04:33:46;22.13;;;7.53;;
16320;SDS011;8269;50.990;4.494;2022-08-04T04:39:34;14.75;;;7.07;;
16320;SDS011;8269;50.990;4.494;2022-08-04T04:48:08;15.13;;;6.93;;
16320;SDS011;8269;50.990;4.494;2022-08-04T04:51:01;47.53;;;8.35;;
16320;SDS011;8269;50.990;4.494;2022-08-04T04:56:27;17.08;;;6.43;;
16320;SDS011;8269;50.990;4.494;2022-08-04T04:59:15;15.27;;;6.53;;
16320;SDS011;8269;50.990;4.494;2022-08-04T05:13:30;17.23;;;6.65;;
16320;SDS011;8269;50.990;4.494;2022-08-04T05:18:47;12.10;;;6.70;;
16320;SDS011;8269;50.990;4.494;2022-08-04T05:23:59;11.82;;;6.32;;
16320;SDS011;8269;50.990;4.494;2022-08-04T05:26:34;12.70;;;6.20;;
16320;SDS011;8269;50.990;4.494;2022-08-04T05:29:05;12.70;;;5.82;;
16320;SDS011;8269;50.990;4.494;2022-08-04T05:31:35;13.90;;;6.35;;
16320;SDS011;8269;50.990;4.494;2022-08-04T05:34:08;14.23;;;6.03;;
16320;SDS011;8269;50.990;4.494;2022-08-04T05:36:42;13.93;;;6.55;;
16320;SDS011;8269;50.990;4.494;2022-08-04T05:39:18;15.02;;;6.05;;
16320;SDS011;8269;50.990;4.494;2022-08-04T05:41:47;13.50;;;5.95;;
16320;SDS011;8269;50.990;4.494;2022-08-04T05:44:14;15.57;;;5.97;;
16320;SDS011;8269;50.990;4.494;2022-08-04T05:46:42;11.43;;;5.95;;
16320;SDS011;8269;50.990;4.494;2022-08-04T05:49:10;15.82;;;6.38;;
16320;SDS011;8269;50.990;4.494;2022-08-04T05:51:36;17.10;;;6.57;;
16320;SDS011;8269;50.990;4.494;2022-08-04T05:54:02;16.35;;;6.20;;
16320;SDS011;8269;50.990;4.494;2022-08-04T05:56:30;15.30;;;5.93;;
16320;SDS011;8269;50.990;4.494;2022-08-04T05:58:59;16.67;;;5.78;;
16320;SDS011;8269;50.990;4.494;2022-08-04T06:01:27;11.43;;;5.15;;
16320;SDS011;8269;50.990;4.494;2022-08-04T06:03:54;13.68;;;5.00;;
16320;SDS011;8269;50.990;4.494;2022-08-04T06:06:22;12.25;;;5.50;;
16320;SDS011;8269;50.990;4.494;2022-08-04T06:08:49;17.48;;;5.18;;
16320;SDS011;8269;50.990;4.494;2022-08-04T06:11:15;14.10;;;5.70;;
16320;SDS011;8269;50.990;4.494;2022-08-04T06:13:47;14.07;;;5.38;;
16320;SDS011;8269;50.990;4.494;2022-08-04T06:16:18;15.05;;;5.72;;
16320;SDS011;8269;50.990;4.494;2022-08-04T06:18:47;12.82;;;5.10;;
16320;SDS011;8269;50.990;4.494;2022-08-04T06:21:15;12.10;;;4.78;;
16320;SDS011;8269;50.990;4.494;2022-08-04T06:23:45;12.82;;;5.03;;
16320;SDS011;8269;50.990;4.494;2022-08-04T06:26:12;12.18;;;4.90;;
16320;SDS011;8269;50.990;4.494;2022-08-04T06:28:45;8.45;;;4.40;;
16320;SDS011;8269;50.990;4.494;2022-08-04T06:31:14;8.27;;;3.92;;
16320;SDS011;8269;50.990;4.494;2022-08-04T06:34:02;11.27;;;4.63;;
16320;SDS011;8269;50.990;4.494;2022-08-04T06:36:30;15.40;;;5.50;;
16320;SDS011;8269;50.990;4.494;2022-08-04T06:38:57;9.57;;;4.68;;
16320;SDS011;8269;50.990;4.494;2022-08-04T06:41:25;14.07;;;4.80;;
16320;SDS011;8269;50.990;4.494;2022-08-04T06:43:54;11.65;;;4.70;;
16320;SDS011;8269;50.990;4.494;2022-08-04T06:46:24;14.25;;;4.43;;
16320;SDS011;8269;50.990;4.494;2022-08-04T06:48:52;14.32;;;4.97;;
16320;SDS011;8269;50.990;4.494;2022-08-04T06:51:22;11.98;;;4.10;;
16320;SDS011;8269;50.990;4.494;2022-08-04T06:53:49;11.18;;;4.60;;
16320;SDS011;8269;50.990;4.494;2022-08-04T06:56:15;11.23;;;4.53;;
16320;SDS011;8269;50.990;4.494;2022-08-04T06:58:44;11.07;;;4.53;;
16320;SDS011;8269;50.990;4.494;2022-08-04T07:01:12;12.68;;;4.53;;
16320;SDS011;8269;50.990;4.494;2022-08-04T07:03:38;8.93;;;4.30;;
16320;SDS011;8269;50.990;4.494;2022-08-04T07:06:05;16.60;;;4.18;;
16320;SDS011;8269;50.990;4.494;2022-08-04T07:08:34;13.88;;;4.00;;
16320;SDS011;8269;50.990;4.494;2022-08-04T07:11:00;10.15;;;4.30;;
16320;SDS011;8269;50.990;4.494;2022-08-04T07:13:26;13.10;;;4.45;;
16320;SDS011;8269;50.990;4.494;2022-08-04T07:15:52;13.05;;;4.60;;
16320;SDS011;8269;50.990;4.494;2022-08-04T07:18:20;9.80;;;4.28;;
16320;SDS011;8269;50.990;4.494;2022-08-04T07:20:45;9.38;;;4.30;;
16320;SDS011;8269;50.990;4.494;2022-08-04T07:23:13;10.77;;;3.90;;
16320;SDS011;8269;50.990;4.494;2022-08-04T07:25:44;13.73;;;4.35;;
16320;SDS011;8269;50.990;4.494;2022-08-04T07:28:16;12.85;;;4.10;;
16320;SDS011;8269;50.990;4.494;2022-08-04T07:30:42;13.63;;;4.35;;
16320;SDS011;8269;50.990;4.494;2022-08-04T07:33:09;9.77;;;4.35;;
16320;SDS011;8269;50.990;4.494;2022-08-04T07:35:36;11.68;;;5.03;;
16320;SDS011;8269;50.990;4.494;2022-08-04T07:38:03;10.55;;;4.50;;
16320;SDS011;8269;50.990;4.494;2022-08-04T07:40:29;10.30;;;4.22;;
16320;SDS011;8269;50.990;4.494;2022-08-04T07:42:57;12.23;;;4.55;;
16320;SDS011;8269;50.990;4.494;2022-08-04T07:45:23;12.18;;;4.93;;
16320;SDS011;8269;50.990;4.494;2022-08-04T07:47:49;14.90;;;4.80;;
16320;SDS011;8269;50.990;4.494;2022-08-04T07:50:15;14.27;;;4.57;;
16320;SDS011;8269;50.990;4.494;2022-08-04T07:52:41;15.07;;;4.75;;
16320;SDS011;8269;50.990;4.494;2022-08-04T07:55:09;9.65;;;4.85;;
16320;SDS011;8269;50.990;4.494;2022-08-04T07:57:35;10.43;;;4.90;;
16320;SDS011;8269;50.990;4.494;2022-08-04T08:00:02;15.77;;;5.55;;
16320;SDS011;8269;50.990;4.494;2022-08-04T08:02:29;13.60;;;5.75;;
16320;SDS011;8269;50.990;4.494;2022-08-04T08:04:55;14.57;;;5.13;;
16320;SDS011;8269;50.990;4.494;2022-08-04T08:07:21;12.38;;;5.80;;
16320;SDS011;8269;50.990;4.494;2022-08-04T08:09:47;11.80;;;5.30;;
16320;SDS011;8269;50.990;4.494;2022-08-04T08:12:13;9.43;;;5.07;;
16320;SDS011;8269;50.990;4.494;2022-08-04T08:14:39;13.25;;;5.55;;
16320;SDS011;8269;50.990;4.494;2022-08-04T08:17:06;8.50;;;5.43;;
16320;SDS011;8269;50.990;4.494;2022-08-04T08:19:32;13.93;;;5.65;;
16320;SDS011;8269;50.990;4.494;2022-08-04T08:21:59;11.95;;;5.85;;
16320;SDS011;8269;50.990;4.494;2022-08-04T08:24:29;17.02;;;5.80;;
16320;SDS011;8269;50.990;4.494;2022-08-04T08:26:58;14.80;;;6.18;;
16320;SDS011;8269;50.990;4.494;2022-08-04T08:29:28;13.88;;;7.40;;
16320;SDS011;8269;50.990;4.494;2022-08-04T08:31:54;12.85;;;7.78;;
16320;SDS011;8269;50.990;4.494;2022-08-04T08:34:21;14.60;;;9.80;;
16320;SDS011;8269;50.990;4.494;2022-08-04T08:36:56;15.65;;;10.68;;
16320;SDS011;8269;50.990;4.494;2022-08-04T08:39:29;18.35;;;12.05;;
16320;SDS011;8269;50.990;4.494;2022-08-04T08:55:53;20.92;;;16.02;;
16320;SDS011;8269;50.990;4.494;2022-08-04T09:09:56;22.73;;;17.55;;
16320;SDS011;8269;50.990;4.494;2022-08-04T09:12:35;23.55;;;17.45;;
16320;SDS011;8269;50.990;4.494;2022-08-04T09:15:15;27.38;;;17.98;;
16320;SDS011;8269;50.990;4.494;2022-08-04T09:17:53;23.42;;;18.05;;
16320;SDS011;8269;50.990;4.494;2022-08-04T09:23:35;26.02;;;19.48;;
16320;SDS011;8269;50.990;4.494;2022-08-04T09:29:18;28.27;;;20.88;;
16320;SDS011;8269;50.990;4.494;2022-08-04T09:37:23;27.85;;;20.55;;
16320;SDS011;8269;50.990;4.494;2022-08-04T09:43:10;29.05;;;21.33;;
16320;SDS011;8269;50.990;4.494;2022-08-04T09:46:00;26.10;;;21.55;;
16320;SDS011;8269;50.990;4.494;2022-08-04T09:48:33;26.85;;;20.77;;
16320;SDS011;8269;50.990;4.494;2022-08-04T09:51:10;26.10;;;20.85;;
16320;SDS011;8269;50.990;4.494;2022-08-04T09:53:48;29.88;;;22.20;;
16320;SDS011;8269;50.990;4.494;2022-08-04T09:59:28;43.75;;;28.48;;
16320;SDS011;8269;50.990;4.494;2022-08-04T10:02:16;49.13;;;29.77;;
16320;SDS011;8269;50.990;4.494;2022-08-04T10:04:45;44.13;;;30.35;;
16320;SDS011;8269;50.990;4.494;2022-08-04T10:13:01;43.78;;;30.83;;
16320;SDS011;8269;50.990;4.494;2022-08-04T10:18:31;43.78;;;27.80;;
16320;SDS011;8269;50.990;4.494;2022-08-04T10:23:47;34.33;;;25.10;;
16320;SDS011;8269;50.990;4.494;2022-08-04T10:29:11;32.47;;;24.02;;
16320;SDS011;8269;50.990;4.494;2022-08-04T10:34:35;28.55;;;22.27;;
16320;SDS011;8269;50.990;4.494;2022-08-04T10:37:17;27.75;;;22.25;;
16320;SDS011;8269;50.990;4.494;2022-08-04T10:40:19;26.52;;;20.10;;
16320;SDS011;8269;50.990;4.494;2022-08-04T10:48:42;19.15;;;16.48;;
16320;SDS011;8269;50.990;4.494;2022-08-04T10:51:26;17.17;;;13.70;;
16320;SDS011;8269;50.990;4.494;2022-08-04T10:54:00;13.80;;;11.45;;
16320;SDS011;8269;50.990;4.494;2022-08-04T10:56:31;14.88;;;12.38;;
16320;SDS011;8269;50.990;4.494;2022-08-04T10:58:59;15.52;;;13.05;;
16320;SDS011;8269;50.990;4.494;2022-08-04T11:01:41;18.20;;;11.15;;
16320;SDS011;8269;50.990;4.494;2022-08-04T11:04:55;13.93;;;10.35;;
16320;SDS011;8269;50.990;4.494;2022-08-04T11:07:05;13.98;;;10.38;;
16320;SDS011;8269;50.990;4.494;2022-08-04T11:09:32;11.80;;;10.30;;
16320;SDS011;8269;50.990;4.494;2022-08-04T11:12:06;12.75;;;9.68;;
16320;SDS011;8269;50.990;4.494;2022-08-04T11:14:45;16.17;;;9.82;;
16320;SDS011;8269;50.990;4.494;2022-08-04T11:17:27;13.80;;;9.50;;
16320;SDS011;8269;50.990;4.494;2022-08-04T11:23:04;15.45;;;10.95;;
16320;SDS011;8269;50.990;4.494;2022-08-04T11:31:06;10.48;;;8.88;;
16320;SDS011;8269;50.990;4.494;2022-08-04T11:36:07;15.55;;;8.93;;
16320;SDS011;8269;50.990;4.494;2022-08-04T11:39:29;13.00;;;8.05;;
16320;SDS011;8269;50.990;4.494;2022-08-04T11:42:48;17.83;;;8.43;;
16320;SDS011;8269;50.990;4.494;2022-08-04T11:44:59;17.05;;;8.15;;
16320;SDS011;8269;50.990;4.494;2022-08-04T11:52:53;10.85;;;8.20;;
16320;SDS011;8269;50.990;4.494;2022-08-04T11:55:21;11.63;;;7.47;;
16320;SDS011;8269;50.990;4.494;2022-08-04T11:57:48;11.55;;;8.18;;
16320;SDS011;8269;50.990;4.494;2022-08-04T12:00:14;14.07;;;7.82;;
16320;SDS011;8269;50.990;4.494;2022-08-04T12:05:45;11.25;;;8.27;;
16320;SDS011;8269;50.990;4.494;2022-08-04T12:13:40;12.05;;;8.07;;
16320;SDS011;8269;50.990;4.494;2022-08-04T12:16:20;11.07;;;7.25;;
16320;SDS011;8269;50.990;4.494;2022-08-04T12:18:57;12.40;;;6.38;;
16320;SDS011;8269;50.990;4.494;2022-08-04T12:24:01;11.88;;;6.28;;
16320;SDS011;8269;50.990;4.494;2022-08-04T12:26:34;11.48;;;6.90;;
16320;SDS011;8269;50.990;4.494;2022-08-04T12:29:04;12.85;;;6.95;;
16320;SDS011;8269;50.990;4.494;2022-08-04T12:31:43;9.85;;;5.78;;
16320;SDS011;8269;50.990;4.494;2022-08-04T12:37:14;10.65;;;7.38;;
16320;SDS011;8269;50.990;4.494;2022-08-04T12:39:42;9.25;;;7.05;;
16320;SDS011;8269;50.990;4.494;2022-08-04T12:42:16;13.30;;;6.10;;
16320;SDS011;8269;50.990;4.494;2022-08-04T12:44:51;14.00;;;5.75;;
16320;SDS011;8269;50.990;4.494;2022-08-04T12:47:21;13.48;;;6.10;;
16320;SDS011;8269;50.990;4.494;2022-08-04T12:49:52;8.68;;;6.13;;
16320;SDS011;8269;50.990;4.494;2022-08-04T12:52:20;9.68;;;6.07;;
16320;SDS011;8269;50.990;4.494;2022-08-04T12:54:47;9.98;;;5.45;;
16320;SDS011;8269;50.990;4.494;2022-08-04T12:57:18;9.68;;;5.40;;
16320;SDS011;8269;50.990;4.494;2022-08-04T12:59:45;9.60;;;4.88;;
16320;SDS011;8269;50.990;4.494;2022-08-04T13:02:22;10.05;;;5.38;;
16320;SDS011;8269;50.990;4.494;2022-08-04T13:04:54;7.57;;;5.10;;
16320;SDS011;8269;50.990;4.494;2022-08-04T13:07:25;7.88;;;4.65;;
16320;SDS011;8269;50.990;4.494;2022-08-04T13:10:00;7.93;;;4.32;;
16320;SDS011;8269;50.990;4.494;2022-08-04T13:12:35;8.02;;;4.40;;
16320;SDS011;8269;50.990;4.494;2022-08-04T13:15:10;11.43;;;4.60;;
16320;SDS011;8269;50.990;4.494;2022-08-04T13:17:49;7.63;;;4.50;;
16320;SDS011;8269;50.990;4.494;2022-08-04T13:20:39;7.95;;;4.00;;
16320;SDS011;8269;50.990;4.494;2022-08-04T13:23:05;10.20;;;4.82;;
16320;SDS011;8269;50.990;4.494;2022-08-04T13:25:35;7.35;;;3.95;;
16320;SDS011;8269;50.990;4.494;2022-08-04T13:28:07;8.80;;;4.25;;
16320;SDS011;8269;50.990;4.494;2022-08-04T13:30:47;12.35;;;5.93;;
16320;SDS011;8269;50.990;4.494;2022-08-04T13:33:19;8.68;;;4.72;;
16320;SDS011;8269;50.990;4.494;2022-08-04T13:35:47;8.90;;;4.10;;
16320;SDS011;8269;50.990;4.494;2022-08-04T13:38:14;8.75;;;4.70;;
16320;SDS011;8269;50.990;4.494;2022-08-04T13:40:42;8.63;;;4.75;;
16320;SDS011;8269;50.990;4.494;2022-08-04T13:45:50;11.52;;;4.10;;
16320;SDS011;8269;50.990;4.494;2022-08-04T13:48:25;6.50;;;3.70;;
16320;SDS011;8269;50.990;4.494;2022-08-04T13:51:00;7.63;;;5.00;;
16320;SDS011;8269;50.990;4.494;2022-08-04T13:53:30;9.63;;;5.05;;
16320;SDS011;8269;50.990;4.494;2022-08-04T13:56:00;11.38;;;5.07;;
16320;SDS011;8269;50.990;4.494;2022-08-04T13:58:32;11.52;;;4.72;;
16320;SDS011;8269;50.990;4.494;2022-08-04T14:01:00;10.65;;;5.03;;
16320;SDS011;8269;50.990;4.494;2022-08-04T14:03:34;9.07;;;4.85;;
16320;SDS011;8269;50.990;4.494;2022-08-04T14:11:20;8.35;;;5.25;;
16320;SDS011;8269;50.990;4.494;2022-08-04T14:13:47;11.15;;;5.30;;
16320;SDS011;8269;50.990;4.494;2022-08-04T14:16:18;10.40;;;5.53;;
16320;SDS011;8269;50.990;4.494;2022-08-04T14:18:44;10.40;;;6.88;;
16320;SDS011;8269;50.990;4.494;2022-08-04T14:21:12;9.40;;;5.22;;
16320;SDS011;8269;50.990;4.494;2022-08-04T14:23:55;12.18;;;6.50;;
16320;SDS011;8269;50.990;4.494;2022-08-04T14:26:31;11.32;;;6.53;;
16320;SDS011;8269;50.990;4.494;2022-08-04T14:29:09;7.70;;;5.78;;
16320;SDS011;8269;50.990;4.494;2022-08-04T14:31:36;8.73;;;6.15;;
16320;SDS011;8269;50.990;4.494;2022-08-04T14:34:01;11.00;;;6.28;;
16320;SDS011;8269;50.990;4.494;2022-08-04T14:36:27;10.02;;;6.60;;
16320;SDS011;8269;50.990;4.494;2022-08-04T14:39:07;10.57;;;6.53;;
16320;SDS011;8269;50.990;4.494;2022-08-04T14:41:44;9.30;;;5.30;;
16320;SDS011;8269;50.990;4.494;2022-08-04T14:44:11;10.40;;;5.70;;
16320;SDS011;8269;50.990;4.494;2022-08-04T14:46:53;9.15;;;5.78;;
16320;SDS011;8269;50.990;4.494;2022-08-04T14:49:20;9.57;;;5.72;;
16320;SDS011;8269;50.990;4.494;2022-08-04T14:54:30;9.88;;;6.30;;
16320;SDS011;8269;50.990;4.494;2022-08-04T14:56:59;11.60;;;6.40;;
16320;SDS011;8269;50.990;4.494;2022-08-04T14:59:35;9.80;;;5.40;;
16320;SDS011;8269;50.990;4.494;2022-08-04T15:02:06;9.70;;;5.75;;
16320;SDS011;8269;50.990;4.494;2022-08-04T15:04:32;8.65;;;4.68;;
16320;SDS011;8269;50.990;4.494;2022-08-04T15:06:58;10.38;;;5.43;;
16320;SDS011;8269;50.990;4.494;2022-08-04T15:09:25;9.93;;;4.13;;
16320;SDS011;8269;50.990;4.494;2022-08-04T15:11:52;9.60;;;4.47;;
16320;SDS011;8269;50.990;4.494;2022-08-04T15:14:19;9.95;;;4.50;;
16320;SDS011;8269;50.990;4.494;2022-08-04T15:16:45;9.13;;;4.07;;
16320;SDS011;8269;50.990;4.494;2022-08-04T15:19:11;12.18;;;4.47;;
16320;SDS011;8269;50.990;4.494;2022-08-04T15:21:37;9.00;;;4.75;;
16320;SDS011;8269;50.990;4.494;2022-08-04T15:24:04;8.90;;;4.20;;
16320;SDS011;8269;50.990;4.494;2022-08-04T15:26:58;12.30;;;5.00;;
16320;SDS011;8269;50.990;4.494;2022-08-04T15:29:48;10.65;;;4.40;;
16320;SDS011;8269;50.990;4.494;2022-08-04T15:32:15;10.38;;;5.30;;
16320;SDS011;8269;50.990;4.494;2022-08-04T15:34:48;8.35;;;5.05;;
16320;SDS011;8269;50.990;4.494;2022-08-04T15:37:24;9.48;;;4.85;;
16320;SDS011;8269;50.990;4.494;2022-08-04T15:40:55;11.55;;;5.05;;
16320;SDS011;8269;50.990;4.494;2022-08-04T15:45:47;8.85;;;3.10;;
16320;SDS011;8269;50.990;4.494;2022-08-04T15:48:25;5.50;;;3.20;;
16320;SDS011;8269;50.990;4.494;2022-08-04T15:53:26;9.68;;;3.60;;
16320;SDS011;8269;50.990;4.494;2022-08-04T15:55:53;11.60;;;3.95;;
16320;SDS011;8269;50.990;4.494;2022-08-04T15:58:19;10.73;;;3.55;;
16320;SDS011;8269;50.990;4.494;2022-08-04T16:06:01;7.45;;;3.97;;
16320;SDS011;8269;50.990;4.494;2022-08-04T16:19:07;8.65;;;3.97;;
16320;SDS011;8269;50.990;4.494;2022-08-04T16:21:48;9.82;;;3.78;;
16320;SDS011;8269;50.990;4.494;2022-08-04T16:27:06;9.10;;;4.30;;
16320;SDS011;8269;50.990;4.494;2022-08-04T16:37:06;9.27;;;3.92;;
16320;SDS011;8269;50.990;4.494;2022-08-04T16:39:34;7.88;;;4.15;;
16320;SDS011;8269;50.990;4.494;2022-08-04T16:42:00;6.97;;;3.53;;
16320;SDS011;8269;50.990;4.494;2022-08-04T16:50:17;7.65;;;3.90;;
16320;SDS011;8269;50.990;4.494;2022-08-04T16:52:53;9.85;;;4.30;;
16320;SDS011;8269;50.990;4.494;2022-08-04T16:55:20;8.98;;;4.20;;
16320;SDS011;8269;50.990;4.494;2022-08-04T16:57:54;8.15;;;3.90;;
16320;SDS011;8269;50.990;4.494;2022-08-04T17:00:34;7.47;;;4.30;;
16320;SDS011;8269;50.990;4.494;2022-08-04T17:03:04;8.20;;;4.00;;
16320;SDS011;8269;50.990;4.494;2022-08-04T17:05:34;8.77;;;3.20;;
16320;SDS011;8269;50.990;4.494;2022-08-04T17:08:01;5.93;;;2.72;;
16320;SDS011;8269;50.990;4.494;2022-08-04T17:13:19;5.72;;;2.70;;
16320;SDS011;8269;50.990;4.494;2022-08-04T17:15:47;8.95;;;3.03;;
16320;SDS011;8269;50.990;4.494;2022-08-04T17:18:16;7.57;;;3.03;;
16320;SDS011;8269;50.990;4.494;2022-08-04T17:20:43;5.55;;;2.80;;
16320;SDS011;8269;50.990;4.494;2022-08-04T17:23:26;7.78;;;3.10;;
16320;SDS011;8269;50.990;4.494;2022-08-04T17:26:04;8.10;;;4.00;;
16320;SDS011;8269;50.990;4.494;2022-08-04T17:28:36;7.63;;;3.60;;
16320;SDS011;8269;50.990;4.494;2022-08-04T17:31:03;8.52;;;3.67;;
16320;SDS011;8269;50.990;4.494;2022-08-04T17:33:31;6.88;;;3.05;;
16320;SDS011;8269;50.990;4.494;2022-08-04T17:35:57;6.32;;;3.08;;
16320;SDS011;8269;50.990;4.494;2022-08-04T17:38:32;9.27;;;3.33;;
16320;SDS011;8269;50.990;4.494;2022-08-04T17:41:07;8.45;;;3.08;;
16320;SDS011;8269;50.990;4.494;2022-08-04T17:46:14;7.82;;;3.05;;
16320;SDS011;8269;50.990;4.494;2022-08-04T17:48:58;8.52;;;3.20;;
16320;SDS011;8269;50.990;4.494;2022-08-04T17:53:58;7.22;;;3.28;;
16320;SDS011;8269;50.990;4.494;2022-08-04T17:56:30;6.25;;;3.20;;
16320;SDS011;8269;50.990;4.494;2022-08-04T17:59:12;8.32;;;3.45;;
16320;SDS011;8269;50.990;4.494;2022-08-04T18:02:01;10.45;;;3.30;;
16320;SDS011;8269;50.990;4.494;2022-08-04T18:06:56;8.48;;;3.40;;
16320;SDS011;8269;50.990;4.494;2022-08-04T18:09:23;10.05;;;5.72;;
16320;SDS011;8269;50.990;4.494;2022-08-04T18:11:56;8.57;;;3.53;;
16320;SDS011;8269;50.990;4.494;2022-08-04T18:14:24;9.45;;;3.60;;
16320;SDS011;8269;50.990;4.494;2022-08-04T18:16:50;5.63;;;3.35;;
16320;SDS011;8269;50.990;4.494;2022-08-04T18:19:16;10.55;;;3.70;;
16320;SDS011;8269;50.990;4.494;2022-08-04T18:21:42;9.52;;;3.78;;
16320;SDS011;8269;50.990;4.494;2022-08-04T18:24:12;9.45;;;3.63;;
16320;SDS011;8269;50.990;4.494;2022-08-04T18:26:38;10.00;;;3.60;;
16320;SDS011;8269;50.990;4.494;2022-08-04T18:29:05;8.20;;;3.40;;
16320;SDS011;8269;50.990;4.494;2022-08-04T18:31:32;8.00;;;3.30;;
16320;SDS011;8269;50.990;4.494;2022-08-04T18:33:58;7.68;;;3.30;;
16320;SDS011;8269;50.990;4.494;2022-08-04T18:36:24;6.55;;;2.97;;
16320;SDS011;8269;50.990;4.494;2022-08-04T18:38:50;7.45;;;2.97;;
16320;SDS011;8269;50.990;4.494;2022-08-04T18:41:16;10.52;;;3.00;;
16320;SDS011;8269;50.990;4.494;2022-08-04T18:43:41;6.57;;;2.78;;
16320;SDS011;8269;50.990;4.494;2022-08-04T18:46:07;9.15;;;3.08;;
16320;SDS011;8269;50.990;4.494;2022-08-04T18:48:33;7.80;;;2.95;;
16320;SDS011;8269;50.990;4.494;2022-08-04T18:50:58;6.80;;;2.78;;
16320;SDS011;8269;50.990;4.494;2022-08-04T18:53:24;8.82;;;3.15;;
16320;SDS011;8269;50.990;4.494;2022-08-04T18:55:49;8.77;;;3.20;;
16320;SDS011;8269;50.990;4.494;2022-08-04T18:58:16;10.40;;;2.67;;
16320;SDS011;8269;50.990;4.494;2022-08-04T19:00:42;7.80;;;3.00;;
16320;SDS011;8269;50.990;4.494;2022-08-04T19:03:07;7.10;;;2.88;;
16320;SDS011;8269;50.990;4.494;2022-08-04T19:05:33;7.38;;;3.08;;
16320;SDS011;8269;50.990;4.494;2022-08-04T19:07:58;8.48;;;3.00;;
16320;SDS011;8269;50.990;4.494;2022-08-04T19:10:24;9.55;;;3.13;;
16320;SDS011;8269;50.990;4.494;2022-08-04T19:12:50;8.13;;;2.83;;
16320;SDS011;8269;50.990;4.494;2022-08-04T19:15:16;6.38;;;2.75;;
16320;SDS011;8269;50.990;4.494;2022-08-04T19:17:42;7.32;;;2.80;;
16320;SDS011;8269;50.990;4.494;2022-08-04T19:20:07;8.20;;;3.30;;
16320;SDS011;8269;50.990;4.494;2022-08-04T19:22:33;9.02;;;3.15;;
16320;SDS011;8269;50.990;4.494;2022-08-04T19:24:59;7.68;;;3.17;;
16320;SDS011;8269;50.990;4.494;2022-08-04T19:27:25;14.77;;;5.15;;
16320;SDS011;8269;50.990;4.494;2022-08-04T19:29:51;10.07;;;3.85;;
16320;SDS011;8269;50.990;4.494;2022-08-04T19:32:16;12.13;;;4.47;;
16320;SDS011;8269;50.990;4.494;2022-08-04T19:34:43;11.93;;;4.50;;
16320;SDS011;8269;50.990;4.494;2022-08-04T19:37:09;9.65;;;4.57;;
16320;SDS011;8269;50.990;4.494;2022-08-04T19:39:36;8.93;;;4.57;;
16320;SDS011;8269;50.990;4.494;2022-08-04T19:42:01;12.95;;;4.60;;
16320;SDS011;8269;50.990;4.494;2022-08-04T19:44:28;12.60;;;5.70;;
16320;SDS011;8269;50.990;4.494;2022-08-04T19:46:53;13.13;;;6.20;;
16320;SDS011;8269;50.990;4.494;2022-08-04T19:49:19;14.45;;;7.15;;
16320;SDS011;8269;50.990;4.494;2022-08-04T19:51:45;13.10;;;7.32;;
16320;SDS011;8269;50.990;4.494;2022-08-04T19:54:10;11.05;;;6.55;;
16320;SDS011;8269;50.990;4.494;2022-08-04T19:56:36;13.27;;;8.75;;
16320;SDS011;8269;50.990;4.494;2022-08-04T19:59:03;17.92;;;9.02;;
16320;SDS011;8269;50.990;4.494;2022-08-04T20:01:28;12.52;;;6.10;;
16320;SDS011;8269;50.990;4.494;2022-08-04T20:03:54;12.88;;;5.90;;
16320;SDS011;8269;50.990;4.494;2022-08-04T20:06:20;13.27;;;6.18;;
16320;SDS011;8269;50.990;4.494;2022-08-04T20:08:46;12.80;;;5.88;;
16320;SDS011;8269;50.990;4.494;2022-08-04T20:11:11;12.68;;;6.53;;
16320;SDS011;8269;50.990;4.494;2022-08-04T20:13:37;15.35;;;6.72;;